Mc Indoe Falls, Vermont
Current Conditions -  °F | °C
As of 2:51 PM on Sunday 25 Jan 2015 (Local Time) from KMPV Reporting Station
Few Clouds Few Clouds  
Wind Chill: -4°   Ceiling: Unl
Heat Index: 11°   Visibility: 10mi
Dew Point:   Wind: 13mph
Humidity: 64%   Direction: 300°WNW
Pressure: 29.77"   Gusts: NA
Location:  44.2588°N, 72.0585°W
Report Text: KMPV 251951Z AUTO 30011KT 10SM FEW024 FEW035 M12/M17 A2977 RMK AO2 SLP103 T11171172 $
Loading
Personal Weather Stations






























Interactive Weather Map New forecast layout! Learn more

10-Day Weather Forecast

Advertisements
Track Severe Weather on mobile